Time;durP1;ratioP1;P1;durP2;ratioP2;P2;SDS_P1;SDS_P2;PMS_P1;PMS_P2;Temp;Humidity;BMP_temperature;BMP_pressure;BME280_temperature;BME280_humidity;BME280_pressure;Samples;Min_cycle;Max_cycle;Signal;HPM_P1;HPM_P2
2023/06/17 00:01:59;;;;;;;0.38;0.35;;;;;;;16.53;100.00;101659.91;10437929;28;20430;-81
2023/06/17 00:07:01;;;;;;;0.30;0.10;;;;;;;16.49;100.00;101659.84;10432222;28;20056;-81
2023/06/17 00:12:02;;;;;;;0.05;0.00;;;;;;;16.54;100.00;101640.84;10445052;28;20045;-81
2023/06/17 00:17:04;;;;;;;0.10;0.00;;;;;;;16.70;100.00;101640.19;10431289;28;20033;-81
2023/06/17 00:22:08;;;;;;;0.35;0.20;;;;;;;16.42;100.00;101646.75;10432060;28;20492;-81
2023/06/17 00:27:10;;;;;;;0.10;0.10;;;;;;;16.61;100.00;101632.28;10425381;28;20049;-81
2023/06/17 00:32:12;;;;;;;0.52;0.30;;;;;;;16.14;100.00;101636.84;10460995;28;20037;-81
2023/06/17 00:37:13;;;;;;;0.43;0.17;;;;;;;16.28;100.00;101630.94;10448003;28;20408;-81
2023/06/17 00:42:16;;;;;;;0.00;0.00;;;;;;;16.24;100.00;101639.56;10451170;28;20549;-81
2023/06/17 00:47:18;;;;;;;0.38;0.38;;;;;;;16.09;100.00;101630.72;10449159;28;20140;-81
2023/06/17 00:52:20;;;;;;;0.20;0.10;;;;;;;15.82;100.00;101629.38;10430673;28;20048;-81
2023/06/17 00:57:42;;;;;;;0.10;0.10;;;;;;;15.68;100.00;101630.88;10429933;28;20579;-81
2023/06/17 01:02:45;;;;;;;0.20;0.10;;;;;;;15.64;100.00;101623.91;10450921;28;20036;-81
2023/06/17 01:08:12;;;;;;;0.00;0.00;;;;;;;15.12;100.00;101611.78;10431532;28;20043;-81
2023/06/17 01:13:16;;;;;;;0.00;0.00;;;;;;;15.52;100.00;101604.69;10428487;28;20056;-81
2023/06/17 01:18:20;;;;;;;0.10;0.10;;;;;;;15.10;100.00;101608.25;10452209;28;20102;-81
2023/06/17 01:23:26;;;;;;;2.35;0.40;;;;;;;15.32;100.00;101604.34;10432658;28;20052;-81
2023/06/17 01:28:29;;;;;;;0.30;0.30;;;;;;;15.23;100.00;101607.63;10439496;28;20070;-81
2023/06/17 01:33:31;;;;;;;0.15;0.15;;;;;;;15.10;100.00;101616.03;10451252;28;20059;-81
2023/06/17 01:38:42;;;;;;;0.28;0.10;;;;;;;15.39;100.00;101613.09;10452010;28;20075;-81
2023/06/17 01:43:45;;;;;;;0.20;0.10;;;;;;;15.04;100.00;101616.81;10423260;28;20045;-80
2023/06/17 01:48:47;;;;;;;0.00;0.00;;;;;;;14.73;100.00;101620.53;10461843;28;20048;-80
2023/06/17 01:53:50;;;;;;;0.93;0.50;;;;;;;14.79;100.00;101618.03;10444023;28;20045;-81
2023/06/17 01:58:52;;;;;;;0.10;0.10;;;;;;;15.45;100.00;101623.59;10435819;28;20281;-81
2023/06/17 02:03:54;;;;;;;0.00;0.00;;;;;;;15.38;100.00;101621.72;10457642;28;20041;-81
2023/06/17 02:08:56;;;;;;;0.10;0.10;;;;;;;14.97;100.00;101619.25;10460667;28;20053;-80
2023/06/17 02:13:58;;;;;;;0.25;0.25;;;;;;;14.80;100.00;101626.72;10444678;28;20095;-81
2023/06/17 02:19:02;;;;;;;0.47;0.32;;;;;;;14.82;100.00;101623.31;10437883;28;20053;-81
2023/06/17 02:24:04;;;;;;;0.00;0.00;;;;;;;14.62;100.00;101622.00;10448397;28;20036;-80
2023/06/17 02:29:06;;;;;;;0.30;0.25;;;;;;;14.68;100.00;101617.84;10440080;28;20053;-81
2023/06/17 02:34:07;;;;;;;0.52;0.25;;;;;;;13.43;100.00;101633.09;10456828;28;20511;-81
2023/06/17 02:39:10;;;;;;;0.40;0.10;;;;;;;14.20;100.00;101616.78;10452103;28;20126;-80
2023/06/17 02:44:12;;;;;;;5.68;0.63;;;;;;;13.95;100.00;101621.44;10457793;28;20064;-81
2023/06/17 02:49:14;;;;;;;0.40;0.20;;;;;;;14.16;100.00;101621.84;10464072;28;20041;-80
2023/06/17 02:54:15;;;;;;;0.22;0.22;;;;;;;13.94;100.00;101606.72;10436474;28;20077;-80
2023/06/17 02:59:18;;;;;;;0.30;0.20;;;;;;;14.34;100.00;101606.72;10444556;28;20066;-81
2023/06/17 03:04:23;;;;;;;0.05;0.05;;;;;;;14.03;100.00;101605.19;10454458;28;20156;-80
2023/06/17 03:09:26;;;;;;;0.20;0.20;;;;;;;13.68;100.00;101607.78;10454680;28;20056;-81
2023/06/17 03:14:29;;;;;;;0.15;0.15;;;;;;;13.74;100.00;101613.13;10431489;28;20061;-80
2023/06/17 03:19:33;;;;;;;0.10;0.10;;;;;;;14.24;100.00;101616.03;10447493;28;20579;-80
2023/06/17 03:24:35;;;;;;;0.50;0.30;;;;;;;13.88;100.00;101601.41;10453584;28;20068;-82
2023/06/17 03:29:37;;;;;;;0.20;0.10;;;;;;;14.08;100.00;101606.16;10439784;28;20053;-80
2023/06/17 03:34:40;;;;;;;0.10;0.10;;;;;;;13.98;100.00;101601.59;10472895;28;20049;-80
2023/06/17 03:39:44;;;;;;;0.30;0.28;;;;;;;13.99;100.00;101592.97;10469366;28;20504;-80
2023/06/17 03:44:47;;;;;;;0.00;0.00;;;;;;;14.04;100.00;101599.13;10453118;28;20526;-80
2023/06/17 03:49:49;;;;;;;0.30;0.13;;;;;;;14.04;100.00;101597.44;10454184;28;20072;-80
2023/06/17 03:54:50;;;;;;;0.00;0.00;;;;;;;14.24;100.00;101590.13;10428654;28;20644;-81
2023/06/17 03:59:52;;;;;;;0.10;0.10;;;;;;;14.22;100.00;101596.97;10449941;28;20411;-80
2023/06/17 04:04:54;;;;;;;0.17;0.15;;;;;;;14.16;100.00;101590.75;10437888;28;20055;-80
2023/06/17 04:09:56;;;;;;;0.10;0.10;;;;;;;13.93;100.00;101604.97;10472704;28;20060;-80
2023/06/17 04:15:08;;;;;;;0.30;0.17;;;;;;;14.40;100.00;101600.81;10453571;28;20091;-80
2023/06/17 04:20:10;;;;;;;0.15;0.10;;;;;;;14.49;100.00;101595.81;10448094;28;20697;-80
2023/06/17 04:25:20;;;;;;;0.05;0.05;;;;;;;15.38;100.00;101587.97;10450294;28;20494;-81
2023/06/17 04:30:25;;;;;;;0.40;0.22;;;;;;;15.09;100.00;101595.25;10437914;28;20044;-80
2023/06/17 04:35:29;;;;;;;0.30;0.30;;;;;;;15.48;100.00;101591.63;10456105;28;20058;-81
2023/06/17 04:40:36;;;;;;;0.00;0.00;;;;;;;16.07;100.00;101596.00;10449256;28;20044;-80
2023/06/17 04:45:39;;;;;;;0.00;0.00;;;;;;;15.86;100.00;101584.47;10435401;28;20052;-80
2023/06/17 04:50:42;;;;;;;0.45;0.40;;;;;;;16.44;100.00;101588.69;10471912;28;20048;-81
2023/06/17 04:55:43;;;;;;;0.60;0.43;;;;;;;16.57;100.00;101588.88;10453317;28;20132;-80
2023/06/17 05:00:46;;;;;;;0.45;0.40;;;;;;;16.54;100.00;101583.63;10450570;28;20037;-81
2023/06/17 05:05:54;;;;;;;0.82;0.50;;;;;;;17.24;100.00;101587.84;10437295;28;20048;-81
2023/06/17 05:10:59;;;;;;;0.45;0.45;;;;;;;17.80;100.00;101585.69;10433833;28;20140;-81
2023/06/17 05:16:03;;;;;;;0.57;0.40;;;;;;;17.70;100.00;101588.22;10431427;28;20059;-81
2023/06/17 05:21:06;;;;;;;0.70;0.45;;;;;;;18.09;100.00;101583.31;10452310;28;20049;-80
2023/06/17 05:26:08;;;;;;;0.38;0.28;;;;;;;18.68;100.00;101575.75;10461370;28;20053;-81
2023/06/17 05:31:10;;;;;;;0.30;0.30;;;;;;;18.99;100.00;101576.72;10465836;28;20362;-81
2023/06/17 05:36:12;;;;;;;0.45;0.20;;;;;;;19.30;100.00;101576.75;10439920;28;20448;-81
2023/06/17 05:41:14;;;;;;;0.20;0.00;;;;;;;19.51;100.00;101582.81;10453917;28;20489;-81
2023/06/17 05:46:16;;;;;;;0.22;0.22;;;;;;;20.14;100.00;101581.91;10419628;28;20487;-81
2023/06/17 05:51:18;;;;;;;0.52;0.30;;;;;;;19.92;100.00;101586.28;10448576;28;20047;-81
2023/06/17 05:56:21;;;;;;;0.77;0.20;;;;;;;20.02;100.00;101589.75;10443683;28;20036;-81
2023/06/17 06:01:23;;;;;;;0.55;0.30;;;;;;;20.43;100.00;101589.63;10445616;28;20041;-81
2023/06/17 06:06:25;;;;;;;0.32;0.30;;;;;;;20.50;100.00;101587.84;10448856;28;20102;-81
2023/06/17 06:11:28;;;;;;;0.60;0.57;;;;;;;20.70;100.00;101581.63;10432730;28;20048;-81
2023/06/17 06:16:31;;;;;;;0.47;0.47;;;;;;;20.92;100.00;101585.91;10456941;28;20142;-81
2023/06/17 06:21:32;;;;;;;0.55;0.43;;;;;;;20.74;100.00;101579.03;10429615;28;20088;-81
2023/06/17 06:26:35;;;;;;;0.25;0.20;;;;;;;21.34;100.00;101579.47;10475374;28;20061;-81
2023/06/17 06:31:42;;;;;;;10.20;0.77;;;;;;;21.62;100.00;101576.66;10435483;28;20102;-81
2023/06/17 06:36:45;;;;;;;0.25;0.25;;;;;;;21.80;100.00;101584.34;10452478;28;20096;-82
2023/06/17 06:41:48;;;;;;;0.10;0.10;;;;;;;22.04;100.00;101584.97;10432802;28;20041;-81
2023/06/17 06:47:01;;;;;;;0.35;0.35;;;;;;;22.48;100.00;101578.34;10448991;28;20051;-81
2023/06/17 06:52:04;;;;;;;1.02;0.43;;;;;;;22.25;100.00;101578.63;10438038;28;20044;-81
2023/06/17 06:57:07;;;;;;;0.43;0.30;;;;;;;22.93;100.00;101568.97;10468363;28;20056;-81
2023/06/17 07:02:08;;;;;;;3.03;0.68;;;;;;;23.46;100.00;101566.38;10460874;28;20036;-81
2023/06/17 07:07:10;;;;;;;0.28;0.22;;;;;;;23.22;100.00;101570.28;10449253;28;20101;-81
2023/06/17 07:12:14;;;;;;;0.55;0.40;;;;;;;23.85;100.00;101576.22;10451126;28;20048;-81
2023/06/17 07:17:16;;;;;;;0.28;0.22;;;;;;;24.48;100.00;101582.00;10472268;28;20041;-82
2023/06/17 07:22:18;;;;;;;1.25;0.52;;;;;;;24.58;96.63;101577.38;10470302;28;20041;-81
2023/06/17 07:27:20;;;;;;;0.85;0.40;;;;;;;24.78;90.68;101569.94;10443349;28;20052;-81
2023/06/17 07:32:22;;;;;;;0.20;0.20;;;;;;;25.59;86.47;101574.13;10421522;28;20046;-82
2023/06/17 07:37:24;;;;;;;0.43;0.28;;;;;;;25.69;82.06;101568.59;10465813;28;20053;-82
2023/06/17 07:42:26;;;;;;;0.40;0.35;;;;;;;25.90;87.98;101568.00;10451155;28;20583;-81
2023/06/17 07:47:28;;;;;;;0.75;0.50;;;;;;;26.35;81.30;101563.25;10436445;28;20056;-82
2023/06/17 07:52:31;;;;;;;0.28;0.28;;;;;;;27.21;75.44;101565.84;10451425;28;20099;-81
2023/06/17 07:57:33;;;;;;;0.17;0.10;;;;;;;27.07;75.26;101568.94;10448685;28;20041;-82
2023/06/17 08:02:34;;;;;;;0.45;0.28;;;;;;;27.23;70.80;101565.81;10439360;28;20495;-82
2023/06/17 08:07:36;;;;;;;0.20;0.20;;;;;;;27.40;69.26;101562.56;10472127;28;20416;-82
2023/06/17 08:12:38;;;;;;;0.65;0.30;;;;;;;27.63;61.28;101556.50;10445497;28;20045;-82
2023/06/17 08:17:40;;;;;;;0.28;0.20;;;;;;;27.78;58.05;101555.09;10457132;28;20045;-81
2023/06/17 08:22:42;;;;;;;0.40;0.35;;;;;;;27.83;59.82;101552.28;10443780;28;20048;-81
2023/06/17 08:27:47;;;;;;;0.28;0.17;;;;;;;28.23;61.94;101547.31;10462890;28;20063;-81
2023/06/17 08:32:49;;;;;;;0.28;0.17;;;;;;;28.99;59.67;101542.56;10451586;28;20049;-81
2023/06/17 08:37:50;;;;;;;0.47;0.47;;;;;;;29.02;53.56;101539.75;10457849;28;20037;-80
2023/06/17 08:43:01;;;;;;;0.50;0.22;;;;;;;28.61;55.50;101539.66;10439748;28;20051;-81
2023/06/17 08:48:03;;;;;;;1.17;0.47;;;;;;;29.02;61.67;101539.75;10465492;28;20110;-81
2023/06/17 08:53:05;;;;;;;0.10;0.10;;;;;;;28.77;52.60;101540.78;10451883;28;20064;-80
2023/06/17 08:58:08;;;;;;;0.10;0.10;;;;;;;28.30;55.47;101543.50;10447655;28;20559;-81
2023/06/17 09:03:10;;;;;;;0.17;0.17;;;;;;;28.94;52.46;101537.44;10433459;28;20049;-81
2023/06/17 09:08:12;;;;;;;0.40;0.30;;;;;;;28.95;52.47;101528.56;10438537;28;20437;-82
2023/06/17 09:13:14;;;;;;;0.38;0.35;;;;;;;29.18;52.29;101528.50;10420973;28;20515;-82
2023/06/17 09:18:16;;;;;;;0.22;0.20;;;;;;;29.92;49.25;101525.28;10456166;28;20077;-81
2023/06/17 09:23:18;;;;;;;0.10;0.10;;;;;;;29.56;52.67;101526.84;10453438;28;20575;-80
2023/06/17 09:28:21;;;;;;;0.40;0.30;;;;;;;29.34;50.51;101529.59;10446666;28;20056;-81
2023/06/17 09:33:27;;;;;;;0.40;0.40;;;;;;;30.10;50.10;101528.03;10450508;28;20059;-82
2023/06/17 09:38:28;;;;;;;0.25;0.22;;;;;;;30.37;52.93;101526.72;10453687;28;20491;-83
2023/06/17 09:43:30;;;;;;;0.20;0.20;;;;;;;30.06;49.63;101528.16;10463861;28;20052;-81
2023/06/17 09:48:38;;;;;;;0.55;0.38;;;;;;;30.41;50.60;101526.59;10451243;28;20492;-80
2023/06/17 09:53:42;;;;;;;0.40;0.22;;;;;;;29.99;53.40;101526.72;10454810;28;20547;-84
2023/06/17 09:58:45;;;;;;;1.05;0.40;;;;;;;31.14;47.95;101527.44;10446772;28;20051;-82
2023/06/17 10:03:47;;;;;;;0.10;0.10;;;;;;;31.42;49.39;101531.34;10466077;28;20045;-82
2023/06/17 10:08:52;;;;;;;0.70;0.30;;;;;;;30.44;49.03;101526.41;10471142;28;20131;-83
2023/06/17 10:14:06;;;;;;;0.22;0.13;;;;;;;30.54;48.59;101527.75;10442024;28;20040;-82
2023/06/17 10:19:10;;;;;;;0.32;0.32;;;;;;;31.13;49.97;101530.19;10462235;28;20369;-82
2023/06/17 10:24:13;;;;;;;0.73;0.30;;;;;;;31.46;47.80;101516.06;10471696;28;20044;-83
2023/06/17 10:29:14;;;;;;;0.03;0.03;;;;;;;31.70;50.06;101524.56;10457079;28;20492;-82
2023/06/17 10:34:20;;;;;;;0.05;0.05;;;;;;;31.56;45.26;101511.97;10456735;28;20049;-83
2023/06/17 10:39:22;;;;;;;0.73;0.32;;;;;;;32.23;45.92;101511.91;10473593;28;20049;-83
2023/06/17 10:44:26;;;;;;;0.17;0.17;;;;;;;31.28;47.82;101507.22;10456308;28;20380;-81
2023/06/17 10:49:45;;;;;;;0.10;0.10;;;;;;;31.31;44.51;101497.28;10452656;28;20041;-83
2023/06/17 10:54:51;;;;;;;0.10;0.10;;;;;;;31.92;45.21;101497.59;10430124;28;20053;-83
2023/06/17 10:59:53;;;;;;;1.25;0.70;;;;;;;31.32;45.92;101493.66;10456964;28;20040;-81
2023/06/17 11:04:56;;;;;;;0.13;0.13;;;;;;;32.11;43.91;101491.28;10460463;28;20129;-81
2023/06/17 11:09:57;;;;;;;0.10;0.10;;;;;;;30.97;41.92;101492.84;10457815;28;20124;-82
2023/06/17 11:15:03;;;;;;;0.17;0.17;;;;;;;32.23;55.24;101485.25;10457384;28;20041;-82
2023/06/17 11:20:06;;;;;;;0.80;0.38;;;;;;;32.00;43.72;101475.00;10456436;28;20524;-82
2023/06/17 11:25:09;;;;;;;0.50;0.30;;;;;;;31.93;47.60;101475.34;10465729;28;20404;-83
2023/06/17 11:30:13;;;;;;;0.65;0.20;;;;;;;31.90;41.96;101474.66;10474974;28;20046;-81
2023/06/17 11:35:14;;;;;;;0.17;0.17;;;;;;;32.50;44.15;101465.97;10421670;28;20063;-82
2023/06/17 11:40:17;;;;;;;0.03;0.03;;;;;;;31.95;41.39;101464.59;10454930;28;20084;-82
2023/06/17 11:45:20;;;;;;;0.05;0.05;;;;;;;32.10;43.53;101462.91;10455354;28;20067;-83
2023/06/17 11:50:27;;;;;;;0.25;0.10;;;;;;;32.26;38.99;101453.13;10460054;28;20052;-82
2023/06/17 11:55:34;;;;;;;0.67;0.30;;;;;;;32.07;36.39;101450.59;10433415;28;20136;-82
2023/06/17 12:00:36;;;;;;;0.13;0.13;;;;;;;32.23;41.64;101441.78;10452232;28;20044;-82
2023/06/17 12:05:37;;;;;;;0.85;0.35;;;;;;;30.90;42.17;101444.38;10443945;28;20073;-83
2023/06/17 12:10:39;;;;;;;0.20;0.20;;;;;;;32.21;37.51;101439.16;10452669;28;20049;-82
2023/06/17 12:15:41;;;;;;;0.13;0.13;;;;;;;31.91;41.78;101437.28;10450633;28;20040;-82
2023/06/17 12:20:48;;;;;;;0.10;0.10;;;;;;;31.90;37.51;101435.56;10460316;28;20044;-81
2023/06/17 12:25:50;;;;;;;0.63;0.17;;;;;;;32.58;39.85;101431.69;10405204;28;20128;-81
2023/06/17 12:30:52;;;;;;;0.20;0.20;;;;;;;31.63;38.44;101433.44;10429824;28;20045;-81
2023/06/17 12:35:54;;;;;;;0.95;0.32;;;;;;;32.70;44.73;101421.25;10476703;28;20048;-82
2023/06/17 12:40:55;;;;;;;0.30;0.30;;;;;;;31.98;38.09;101413.81;10462170;28;20087;-81
2023/06/17 12:45:58;;;;;;;0.20;0.20;;;;;;;31.99;41.03;101406.66;10395185;28;20060;-82
2023/06/17 12:51:00;;;;;;;0.35;0.35;;;;;;;31.77;38.40;101414.09;10406118;28;20092;-80
2023/06/17 12:56:03;;;;;;;0.43;0.20;;;;;;;31.61;38.52;101416.69;10459332;28;20051;-81
2023/06/17 13:01:05;;;;;;;0.25;0.25;;;;;;;31.41;38.37;101403.63;10462750;28;20053;-81
2023/06/17 13:06:07;;;;;;;0.52;0.43;;;;;;;31.57;38.14;101401.84;10459857;28;20144;-80
2023/06/17 13:11:09;;;;;;;0.15;0.15;;;;;;;32.40;41.69;101395.47;10443578;28;20115;-83
2023/06/17 13:16:11;;;;;;;0.05;0.05;;;;;;;32.46;39.28;101387.09;10422406;28;20118;-83
2023/06/17 13:21:13;;;;;;;0.35;0.20;;;;;;;32.08;38.26;101390.16;10445084;28;20048;-82
2023/06/17 13:26:14;;;;;;;0.20;0.17;;;;;;;31.59;39.57;101388.44;10442730;28;20057;-83
2023/06/17 13:31:16;;;;;;;0.40;0.30;;;;;;;32.32;40.94;101376.38;10456691;28;20470;-83
2023/06/17 13:36:18;;;;;;;0.28;0.20;;;;;;;31.77;41.34;101371.47;10416042;28;20127;-83
2023/06/17 13:41:20;;;;;;;0.10;0.10;;;;;;;31.82;39.50;101373.88;10444443;28;20059;-83
2023/06/17 13:46:22;;;;;;;0.00;0.00;;;;;;;31.88;36.60;101368.19;10443300;28;20438;-82
2023/06/17 13:51:24;;;;;;;0.10;0.10;;;;;;;31.50;39.92;101357.84;10458754;28;20076;-82
2023/06/17 13:56:27;;;;;;;0.55;0.30;;;;;;;31.69;43.99;101370.16;10441827;28;20044;-83
2023/06/17 14:01:29;;;;;;;0.35;0.28;;;;;;;31.61;38.35;101360.75;10417160;28;20041;-83
2023/06/17 14:06:34;;;;;;;0.10;0.10;;;;;;;31.77;38.85;101360.81;10435303;28;20037;-83
2023/06/17 14:11:37;;;;;;;0.05;0.05;;;;;;;31.74;44.71;101360.97;10471308;28;20043;-84
2023/06/17 14:16:39;;;;;;;0.35;0.20;;;;;;;31.82;42.84;101357.00;10442934;28;20069;-82
2023/06/17 14:21:53;;;;;;;0.10;0.10;;;;;;;31.57;41.93;101347.72;10439135;28;20124;-82
2023/06/17 14:27:13;;;;;;;0.10;0.10;;;;;;;31.33;41.63;101346.31;10436519;28;20053;-82
2023/06/17 14:32:16;;;;;;;0.00;0.00;;;;;;;31.88;39.27;101346.88;10472882;28;20049;-82
2023/06/17 14:37:18;;;;;;;0.10;0.10;;;;;;;31.72;45.65;101346.03;10468028;28;20062;-83
2023/06/17 14:42:19;;;;;;;0.43;0.28;;;;;;;31.74;44.01;101346.81;10435910;28;20055;-82
2023/06/17 14:47:22;;;;;;;3.67;1.05;;;;;;;31.14;39.05;101340.31;10444349;28;20650;-82
2023/06/17 14:52:23;;;;;;;0.20;0.20;;;;;;;31.42;41.55;101344.09;10458237;28;20045;-83
2023/06/17 14:57:27;;;;;;;0.93;0.28;;;;;;;31.21;40.24;101341.69;10435998;28;20071;-83
2023/06/17 15:02:43;;;;;;;0.10;0.03;;;;;;;31.75;40.09;101343.19;10448255;28;20033;-82
2023/06/17 15:07:48;;;;;;;0.00;0.00;;;;;;;31.10;43.55;101344.06;10456686;28;20052;-82
2023/06/17 15:12:49;;;;;;;0.08;0.08;;;;;;;31.35;44.11;101340.06;10448949;28;20045;-81
2023/06/17 15:17:51;;;;;;;0.08;0.08;;;;;;;31.15;43.70;101336.72;10459893;28;20051;-82
2023/06/17 15:22:52;;;;;;;0.20;0.13;;;;;;;31.55;44.89;101331.81;10451438;28;20041;-83
2023/06/17 15:27:54;;;;;;;0.00;0.00;;;;;;;31.30;44.22;101325.22;10444453;28;20055;-84
2023/06/17 15:32:56;;;;;;;0.10;0.10;;;;;;;31.44;42.58;101321.78;10445781;28;20045;-83
2023/06/17 15:37:57;;;;;;;0.00;0.00;;;;;;;31.30;44.74;101322.56;10440145;28;20045;-83
2023/06/17 15:42:59;;;;;;;0.35;0.20;;;;;;;32.21;44.07;101321.00;10461962;28;20056;-83
2023/06/17 15:48:01;;;;;;;0.10;0.10;;;;;;;32.04;41.93;101314.84;10433628;28;20049;-83
2023/06/17 15:53:03;;;;;;;0.20;0.20;;;;;;;31.63;41.03;101326.91;10453962;28;20090;-83
2023/06/17 15:58:05;;;;;;;0.40;0.22;;;;;;;31.93;41.48;101315.50;10473447;28;20585;-83
2023/06/17 16:03:06;;;;;;;0.05;0.05;;;;;;;31.61;44.76;101311.97;10454377;28;20059;-84
2023/06/17 16:08:08;;;;;;;0.75;0.10;;;;;;;31.75;44.75;101300.59;10433105;28;20567;-83
2023/06/17 16:13:10;;;;;;;0.13;0.13;;;;;;;31.43;40.48;101298.75;10452119;28;20048;-83
2023/06/17 16:18:12;;;;;;;0.25;0.10;;;;;;;31.53;48.00;101300.91;10424456;28;20044;-84
2023/06/17 16:23:15;;;;;;;0.47;0.20;;;;;;;31.42;47.70;101296.19;10417487;28;20048;-83
2023/06/17 16:28:16;;;;;;;0.10;0.10;;;;;;;31.20;42.98;101292.06;10452297;28;20385;-83
2023/06/17 16:33:18;;;;;;;0.10;0.10;;;;;;;31.53;43.79;101288.47;10462931;28;20396;-83
2023/06/17 16:38:20;;;;;;;0.20;0.20;;;;;;;31.14;42.96;101284.41;10449704;28;20060;-83
2023/06/17 16:43:21;;;;;;;0.08;0.05;;;;;;;31.23;39.56;101291.03;10437967;28;20045;-83
2023/06/17 16:48:23;;;;;;;0.10;0.10;;;;;;;31.90;43.24;101289.03;10445327;28;20064;-83
2023/06/17 16:53:25;;;;;;;0.10;0.10;;;;;;;31.34;41.92;101291.31;10443900;28;20048;-83
2023/06/17 16:58:28;;;;;;;0.08;0.08;;;;;;;31.71;44.25;101286.59;10430432;28;20059;-83
2023/06/17 17:03:30;;;;;;;0.05;0.05;;;;;;;31.30;40.42;101287.06;10429839;28;20098;-83
2023/06/17 17:08:32;;;;;;;0.05;0.05;;;;;;;31.17;46.40;101281.56;10431601;28;20603;-83
2023/06/17 17:13:33;;;;;;;0.10;0.10;;;;;;;30.76;44.55;101297.97;10422477;28;20045;-83
2023/06/17 17:18:49;;;;;;;1.13;0.40;;;;;;;30.72;44.71;101297.25;10453004;28;20036;-83
2023/06/17 17:23:50;;;;;;;1.13;1.02;;;;;;;30.91;45.41;101285.63;10445803;28;20053;-82
2023/06/17 17:28:53;;;;;;;0.55;0.35;;;;;;;30.56;44.39;101299.88;10414506;28;20492;-83
2023/06/17 17:33:55;;;;;;;0.30;0.25;;;;;;;30.69;50.17;101302.72;10436642;28;20059;-83
2023/06/17 17:38:57;;;;;;;0.05;0.05;;;;;;;31.32;53.73;101296.69;10433128;28;20056;-83
2023/06/17 17:43:58;;;;;;;0.43;0.43;;;;;;;30.77;50.91;101305.00;10443207;28;20057;-83
2023/06/17 17:49:00;;;;;;;0.17;0.00;;;;;;;31.10;44.39;101299.69;10437962;28;20059;-82
2023/06/17 17:54:02;;;;;;;0.05;0.05;;;;;;;30.65;46.32;101298.53;10438028;28;20052;-83
2023/06/17 17:59:04;;;;;;;0.30;0.10;;;;;;;30.68;46.46;101299.22;10446198;28;20060;-83
2023/06/17 18:04:08;;;;;;;0.10;0.10;;;;;;;30.39;53.62;101306.03;10451646;28;20500;-82
2023/06/17 18:09:10;;;;;;;0.00;0.00;;;;;;;30.51;48.08;101297.47;10459481;28;20053;-82
2023/06/17 18:14:11;;;;;;;0.05;0.05;;;;;;;30.57;59.19;101304.25;10468070;28;20488;-82
2023/06/17 18:19:13;;;;;;;0.00;0.00;;;;;;;30.17;66.43;101308.94;10475248;28;20365;-83
2023/06/17 18:24:16;;;;;;;0.03;0.03;;;;;;;30.14;54.57;101301.09;10463022;28;20041;-82
2023/06/17 18:29:19;;;;;;;0.17;0.10;;;;;;;29.63;61.82;101307.09;10436008;28;20782;-82
2023/06/17 18:34:20;;;;;;;0.03;0.03;;;;;;;28.91;69.19;101309.47;10461551;28;20045;-82
2023/06/17 18:39:22;;;;;;;0.20;0.00;;;;;;;28.52;61.84;101317.38;10442335;28;20143;-83
2023/06/17 18:44:23;;;;;;;0.55;0.30;;;;;;;28.28;62.63;101320.13;10446148;28;20036;-84
2023/06/17 18:49:25;;;;;;;0.17;0.15;;;;;;;28.00;62.95;101321.25;10435415;28;20098;-82
2023/06/17 18:54:27;;;;;;;0.32;0.20;;;;;;;27.96;63.83;101325.81;10481069;28;20052;-82
2023/06/17 18:59:29;;;;;;;0.35;0.15;;;;;;;28.12;63.75;101326.06;10443746;28;20760;-83
2023/06/17 19:04:30;;;;;;;0.28;0.10;;;;;;;27.73;65.97;101329.41;10474565;28;20044;-82
2023/06/17 19:09:32;;;;;;;2.13;0.52;;;;;;;27.53;69.25;101331.03;10443642;28;20045;-82
2023/06/17 19:14:34;;;;;;;0.20;0.10;;;;;;;27.31;70.68;101327.44;10442537;28;20131;-82
2023/06/17 19:19:36;;;;;;;0.20;0.17;;;;;;;27.14;70.94;101336.91;10469431;28;20044;-82
2023/06/17 19:24:38;;;;;;;0.00;0.00;;;;;;;27.16;72.14;101339.47;10457362;28;20045;-82
2023/06/17 19:29:39;;;;;;;0.00;0.00;;;;;;;27.61;69.86;101335.16;10438315;28;20057;-82
2023/06/17 19:34:41;;;;;;;0.10;0.10;;;;;;;27.61;70.58;101343.09;10467619;28;20052;-82
2023/06/17 19:39:43;;;;;;;0.00;0.00;;;;;;;27.01;69.23;101343.53;10432853;28;20053;-82
2023/06/17 19:44:45;;;;;;;0.10;0.10;;;;;;;26.59;68.14;101343.19;10467508;28;20140;-82
2023/06/17 19:49:47;;;;;;;0.00;0.00;;;;;;;26.32;69.42;101357.34;10435933;28;20069;-82
2023/06/17 19:54:49;;;;;;;0.13;0.08;;;;;;;26.23;72.96;101348.81;10459570;28;20399;-82
2023/06/17 19:59:51;;;;;;;0.08;0.00;;;;;;;26.16;69.63;101352.56;10455269;28;20049;-82
2023/06/17 20:04:53;;;;;;;0.00;0.00;;;;;;;25.85;71.90;101345.56;10458910;28;20059;-81
2023/06/17 20:09:54;;;;;;;0.30;0.20;;;;;;;25.65;74.39;101357.59;10446167;28;20086;-82
2023/06/17 20:14:56;;;;;;;0.08;0.05;;;;;;;25.44;74.69;101358.22;10464998;28;20037;-81
2023/06/17 20:19:58;;;;;;;0.28;0.28;;;;;;;25.63;75.36;101359.44;10459921;28;20068;-81
2023/06/17 20:25:00;;;;;;;0.13;0.05;;;;;;;25.38;80.90;101363.66;10452979;28;20592;-80
2023/06/17 20:30:02;;;;;;;0.20;0.10;;;;;;;25.11;80.37;101367.03;10454914;28;20065;-82
2023/06/17 20:35:04;;;;;;;0.17;0.17;;;;;;;25.08;84.20;101366.25;10461494;28;20036;-82
2023/06/17 20:40:07;;;;;;;0.30;0.30;;;;;;;24.89;89.44;101366.78;10438250;28;20515;-81
2023/06/17 20:45:11;;;;;;;0.10;0.10;;;;;;;24.45;93.13;101366.13;10424036;28;20086;-81
2023/06/17 20:50:13;;;;;;;0.00;0.00;;;;;;;24.30;93.56;101375.25;10450085;28;20041;-81
2023/06/17 20:55:15;;;;;;;0.52;0.30;;;;;;;23.99;98.45;101368.94;10448019;28;20488;-81
2023/06/17 21:00:17;;;;;;;0.15;0.08;;;;;;;23.80;99.12;101372.84;10431159;28;20140;-81
2023/06/17 21:05:19;;;;;;;0.00;0.00;;;;;;;23.50;100.00;101372.59;10461770;28;20119;-81
2023/06/17 21:10:21;;;;;;;0.63;0.43;;;;;;;23.43;99.55;101369.25;10461046;28;20045;-81
2023/06/17 21:15:23;;;;;;;0.00;0.00;;;;;;;23.06;100.00;101370.78;10431755;28;20086;-81
2023/06/17 21:20:25;;;;;;;0.28;0.20;;;;;;;23.07;100.00;101380.41;10435504;28;20053;-81
2023/06/17 21:25:27;;;;;;;0.35;0.08;;;;;;;23.05;100.00;101373.44;10434909;28;20056;-81
2023/06/17 21:30:28;;;;;;;0.63;0.25;;;;;;;22.89;100.00;101378.13;10438793;28;20143;-80
2023/06/17 21:35:30;;;;;;;0.00;0.00;;;;;;;22.74;100.00;101372.25;10460426;28;20063;-80
2023/06/17 21:40:32;;;;;;;0.28;0.15;;;;;;;22.39;100.00;101373.69;10426723;28;20454;-81
2023/06/17 21:45:34;;;;;;;1.27;0.30;;;;;;;22.47;100.00;101377.06;10447755;28;20044;-81
2023/06/17 21:50:36;;;;;;;0.20;0.17;;;;;;;22.52;100.00;101373.53;10434723;28;20051;-81
2023/06/17 21:55:37;;;;;;;0.17;0.10;;;;;;;22.27;100.00;101368.63;10462943;28;20240;-81
2023/06/17 22:00:39;;;;;;;0.00;0.00;;;;;;;21.60;100.00;101371.31;10462911;28;20044;-81
2023/06/17 22:05:41;;;;;;;0.00;0.00;;;;;;;21.15;100.00;101375.28;10442839;28;20163;-81
2023/06/17 22:10:43;;;;;;;0.17;0.10;;;;;;;21.66;100.00;101371.22;10440396;28;20052;-81
2023/06/17 22:15:45;;;;;;;0.22;0.15;;;;;;;21.99;100.00;101374.28;10445150;28;20488;-81
2023/06/17 22:20:49;;;;;;;0.22;0.00;;;;;;;21.61;100.00;101373.91;10445184;28;20498;-81
2023/06/17 22:25:50;;;;;;;1.75;0.85;;;;;;;21.79;100.00;101382.41;10437747;28;20380;-81
2023/06/17 22:30:52;;;;;;;0.55;0.17;;;;;;;21.58;100.00;101383.56;10442807;28;20049;-81
2023/06/17 22:35:54;;;;;;;0.10;0.10;;;;;;;21.67;100.00;101378.19;10432704;28;20048;-81
2023/06/17 22:40:55;;;;;;;0.55;0.47;;;;;;;20.59;100.00;101380.13;10443311;28;20508;-81
2023/06/17 22:45:57;;;;;;;0.20;0.10;;;;;;;20.82;100.00;101381.72;10446317;28;20051;-81
2023/06/17 22:50:59;;;;;;;0.28;0.10;;;;;;;21.15;100.00;101374.44;10447450;28;20045;-81
2023/06/17 22:56:00;;;;;;;0.15;0.15;;;;;;;21.33;100.00;101368.09;10434571;28;20048;-81
2023/06/17 23:01:02;;;;;;;0.10;0.10;;;;;;;21.36;100.00;101368.94;10450156;28;20041;-81
2023/06/17 23:06:04;;;;;;;0.20;0.10;;;;;;;21.24;100.00;101369.06;10449585;28;20404;-81